GOGK

Kolda Airport

Kolda, Senegal
METAR GOGK 260300Z 02006KT 8000 NSC 22/13 Q1011
Observed Flight Rules
Feb-26 @ 03:00 UTC (32 minutes ago) Marginal Visual Flight Rules
Wind Visibility Clouds
20° at 6 knots 7,998 meters
  • Clear skies
Temperatures Readings
Current 22°C / 72°F
Dewpoint 13°C / 55°F
Humidity 57%
Altimeter 29.85" Hg
Pressure 1011 hPa
Elevation 10
METAR GOGK 260300Z 02006KT 8000 NSC 22/13 Q1011
Observed Flight Rules
Feb-26 @ 03:00 UTC
(32 minutes ago)
MVFR
Wind Visibility
20° at 6 knots 7,998 meters
Clouds
  • Clear skies
Temperature Dewpoint
22°C / 72°F 13°C / 55°F
Humidity Altimeter Pressure
57% 29.85" Hg 1011 hPa